Time;durP1;ratioP1;P1;durP2;ratioP2;P2;SDS_P1;SDS_P2;PMS_P1;PMS_P2;Temp;Humidity;BMP_temperature;BMP_pressure;BME280_temperature;BME280_humidity;BME280_pressure;Samples;Min_cycle;Max_cycle;Signal;HPM_P1;HPM_P2
2023/12/03 00:00:11;;;;;;;35.40;9.20;;;;;;;17.41;58.98;100045.77;106720;1254;22630;-67
2023/12/03 00:02:39;;;;;;;25.60;7.10;;;;;;;17.38;59.15;100045.94;106610;1259;22604;-68
2023/12/03 00:05:07;;;;;;;23.60;7.30;;;;;;;17.39;59.22;100046.60;106529;1257;22651;-67
2023/12/03 00:07:35;;;;;;;21.90;7.50;;;;;;;17.38;59.28;100037.73;106571;1263;22575;-68
2023/12/03 00:10:03;;;;;;;31.90;7.70;;;;;;;17.39;59.42;100045.55;106518;1264;22543;-67
2023/12/03 00:12:31;;;;;;;23.90;6.10;;;;;;;17.39;59.48;100037.29;106466;1264;22531;-66
2023/12/03 00:14:59;;;;;;;27.80;7.20;;;;;;;17.40;59.41;100029.52;106646;1257;22649;-67
2023/12/03 00:17:27;;;;;;;33.40;7.00;;;;;;;17.41;59.43;100026.31;106652;1264;23646;-67
2023/12/03 00:19:55;;;;;;;25.00;6.20;;;;;;;17.41;59.43;100024.39;106598;1257;22638;-67
2023/12/03 00:22:22;;;;;;;27.10;7.20;;;;;;;17.42;59.41;100033.27;106518;1259;22530;-68
2023/12/03 00:24:50;;;;;;;25.60;7.10;;;;;;;17.43;59.50;100029.90;106567;1275;22533;-67
2023/12/03 00:27:18;;;;;;;29.80;7.80;;;;;;;17.44;59.53;100031.40;106618;1257;25292;-67
2023/12/03 00:29:47;;;;;;;26.50;6.90;;;;;;;17.45;59.47;100032.75;106612;1273;25374;-66
2023/12/03 00:32:14;;;;;;;29.30;6.60;;;;;;;17.45;59.45;100032.55;106634;1272;22560;-67
2023/12/03 00:34:43;;;;;;;25.80;6.90;;;;;;;17.45;59.47;100033.60;106420;1261;22577;-67
2023/12/03 00:37:11;;;;;;;26.80;7.20;;;;;;;17.47;59.43;100037.18;106710;1261;25250;-66
2023/12/03 00:39:39;;;;;;;27.50;6.50;;;;;;;17.45;59.45;100036.75;106686;1261;25305;-67
2023/12/03 00:42:07;;;;;;;28.50;6.30;;;;;;;17.36;59.63;100032.09;106574;1264;25454;-67
2023/12/03 00:44:36;;;;;;;25.00;6.50;;;;;;;17.16;60.36;100029.77;106079;1253;1003496;-67
2023/12/03 00:47:03;;;;;;;26.40;6.70;;;;;;;17.44;59.47;100029.14;106776;1254;23266;-67
2023/12/03 00:49:31;;;;;;;22.90;6.30;;;;;;;17.50;59.22;100028.06;106742;1261;22536;-67
2023/12/03 00:51:59;;;;;;;21.90;6.70;;;;;;;17.51;59.28;100033.64;106760;1269;22533;-66
2023/12/03 00:54:27;;;;;;;28.70;6.00;;;;;;;17.53;59.23;100037.16;107034;1258;22543;-67
2023/12/03 00:56:56;;;;;;;34.00;8.90;;;;;;;17.51;59.40;100034.15;106759;1254;24272;-68
2023/12/03 00:59:23;;;;;;;25.90;7.30;;;;;;;17.56;59.42;100034.20;106675;1261;22532;-67
2023/12/03 01:01:52;;;;;;;31.90;7.60;;;;;;;17.58;59.46;100033.67;106914;1257;22546;-67
2023/12/03 01:04:19;;;;;;;27.40;6.60;;;;;;;17.62;59.49;100030.48;106812;1260;25357;-66
2023/12/03 01:06:47;;;;;;;26.00;5.70;;;;;;;17.66;59.52;100028.84;106698;1258;25298;-67
2023/12/03 01:09:15;;;;;;;18.80;5.20;;;;;;;17.70;59.47;100032.94;106823;1257;25312;-67
2023/12/03 01:11:43;;;;;;;23.80;5.80;;;;;;;17.73;59.40;100042.02;106856;1261;25260;-66
2023/12/03 01:14:11;;;;;;;25.50;7.40;;;;;;;17.28;60.86;100052.02;106792;1257;22531;-66
2023/12/03 01:16:38;;;;;;;22.50;6.20;;;;;;;17.71;59.57;100054.06;106796;1269;22549;-67
2023/12/03 01:19:06;;;;;;;15.10;4.90;;;;;;;17.86;59.01;100058.44;106769;1254;25311;-67
2023/12/03 01:21:34;;;;;;;17.80;5.00;;;;;;;17.92;58.64;100057.92;106859;1257;22541;-67
2023/12/03 01:24:02;;;;;;;19.30;5.20;;;;;;;17.94;58.42;100063.88;106748;1260;24238;-67
2023/12/03 01:26:30;;;;;;;19.10;5.50;;;;;;;17.98;58.21;100064.00;106784;1264;22531;-65
2023/12/03 01:28:58;;;;;;;17.70;5.20;;;;;;;18.01;57.76;100062.75;106767;1259;22566;-66
2023/12/03 01:31:26;;;;;;;18.40;4.90;;;;;;;18.04;57.61;100061.02;106774;1258;22649;-65
2023/12/03 01:33:55;;;;;;;14.90;4.50;;;;;;;18.06;57.23;100061.91;106750;1269;22534;-66
2023/12/03 01:36:23;;;;;;;14.70;4.10;;;;;;;18.08;56.96;100075.11;106765;1273;22529;-67
2023/12/03 01:38:51;;;;;;;14.60;3.80;;;;;;;18.11;56.70;100075.64;106797;1269;24450;-67
2023/12/03 01:41:19;;;;;;;12.60;3.70;;;;;;;18.13;56.42;100081.48;106768;1255;22530;-67
2023/12/03 01:43:52;;;;;;;9.80;3.00;;;;;;;18.12;56.26;100082.45;106714;1255;22519;-67
2023/12/03 01:46:22;;;;;;;8.90;3.40;;;;;;;18.15;55.89;100091.15;106182;1269;1002655;-66
2023/12/03 01:48:50;;;;;;;11.60;4.70;;;;;;;18.11;55.62;100092.46;106870;1254;22528;-65
2023/12/03 01:51:19;;;;;;;11.40;3.80;;;;;;;18.15;55.10;100096.08;106751;1270;22533;-66
2023/12/03 01:53:46;;;;;;;12.80;3.40;;;;;;;18.14;54.81;100096.34;106749;1269;22541;-66
2023/12/03 01:56:17;;;;;;;7.50;2.80;;;;;;;18.12;54.73;100095.04;106017;1260;1002982;-65
2023/12/03 01:58:45;;;;;;;8.10;3.10;;;;;;;18.09;54.63;100099.11;106794;1254;22533;-65
2023/12/03 02:01:13;;;;;;;14.30;3.00;;;;;;;18.06;54.93;100111.91;106859;1254;24262;-67
2023/12/03 02:03:41;;;;;;;8.30;2.80;;;;;;;18.08;54.81;100118.97;106758;1254;22530;-66
2023/12/03 02:06:09;;;;;;;11.80;3.20;;;;;;;18.08;54.84;100122.16;106814;1260;22540;-67
2023/12/03 02:08:38;;;;;;;10.50;3.70;;;;;;;18.08;54.79;100126.05;106837;1258;22540;-67
2023/12/03 02:11:06;;;;;;;11.80;3.80;;;;;;;18.06;54.74;100129.33;106830;1257;22536;-67
2023/12/03 02:13:37;;;;;;;7.40;2.80;;;;;;;17.98;54.89;100134.52;106710;1257;22550;-65
2023/12/03 02:16:06;;;;;;;9.80;3.70;;;;;;;17.93;54.84;100140.69;106761;1260;22527;-66
2023/12/03 02:18:33;;;;;;;9.30;3.30;;;;;;;17.95;54.80;100131.92;106848;1269;24228;-67
2023/12/03 02:21:02;;;;;;;13.00;3.30;;;;;;;17.95;54.83;100129.48;106682;1259;22522;-67
2023/12/03 02:23:30;;;;;;;9.00;3.10;;;;;;;17.93;54.80;100129.96;106743;1254;22527;-66
2023/12/03 02:25:58;;;;;;;7.60;2.50;;;;;;;17.95;54.75;100129.14;106801;1257;22536;-66
2023/12/03 02:28:26;;;;;;;9.60;3.00;;;;;;;17.85;54.83;100135.36;106690;1257;22538;-66
2023/12/03 02:30:54;;;;;;;10.30;3.20;;;;;;;17.85;54.77;100149.20;106789;1263;22536;-67
2023/12/03 02:33:22;;;;;;;9.10;3.00;;;;;;;17.84;54.73;100154.73;106732;1258;22544;-67
2023/12/03 02:35:50;;;;;;;9.30;3.10;;;;;;;17.82;54.58;100160.98;106860;1258;22533;-66
2023/12/03 02:38:17;;;;;;;8.10;2.90;;;;;;;17.81;54.50;100159.62;106770;1253;22547;-68
2023/12/03 02:40:45;;;;;;;9.60;2.90;;;;;;;17.80;54.41;100161.98;106839;1255;24275;-65
2023/12/03 02:43:13;;;;;;;6.90;2.80;;;;;;;17.78;54.26;100160.46;106824;1258;22583;-67
2023/12/03 02:45:41;;;;;;;8.90;2.60;;;;;;;17.77;54.17;100168.81;106844;1254;22533;-67
2023/12/03 02:48:09;;;;;;;8.50;2.70;;;;;;;17.76;54.02;100172.90;106763;1256;22529;-65
2023/12/03 02:50:37;;;;;;;9.70;3.00;;;;;;;17.75;53.83;100174.20;106759;1271;22550;-66
2023/12/03 02:53:05;;;;;;;8.80;3.10;;;;;;;17.74;53.68;100185.84;106744;1258;24280;-65
2023/12/03 02:55:32;;;;;;;6.70;2.40;;;;;;;17.73;53.57;100198.00;106794;1258;23866;-66
2023/12/03 02:58:00;;;;;;;6.80;3.40;;;;;;;17.72;53.36;100203.84;106807;1258;24228;-66
2023/12/03 03:00:28;;;;;;;5.50;2.00;;;;;;;17.71;53.18;100210.58;106785;1259;23227;-67
2023/12/03 03:02:56;;;;;;;6.50;2.60;;;;;;;17.69;53.05;100230.16;106779;1255;22542;-67
2023/12/03 03:05:23;;;;;;;9.00;2.70;;;;;;;17.68;52.99;100290.92;106709;1257;22525;-67
2023/12/03 03:07:51;;;;;;;6.70;2.20;;;;;;;17.65;52.75;100309.35;106764;1260;22541;-66
2023/12/03 03:10:19;;;;;;;6.80;2.50;;;;;;;17.60;52.71;100328.38;106490;1260;22522;-67
2023/12/03 03:12:47;;;;;;;6.70;2.20;;;;;;;17.57;52.53;100322.08;106822;1254;22518;-68
2023/12/03 03:15:15;;;;;;;5.80;2.70;;;;;;;17.53;52.46;100310.73;106845;1255;22543;-66
2023/12/03 03:17:42;;;;;;;6.40;2.60;;;;;;;17.51;52.27;100323.70;106828;1258;25301;-66
2023/12/03 03:20:10;;;;;;;4.80;2.10;;;;;;;17.47;52.20;100330.86;106913;1258;25374;-65
2023/12/03 03:22:38;;;;;;;5.60;1.90;;;;;;;17.46;52.14;100338.86;106748;1261;22534;-65
2023/12/03 03:25:07;;;;;;;6.40;2.20;;;;;;;17.44;51.94;100342.83;106811;1258;22523;-65
2023/12/03 03:27:35;;;;;;;4.50;2.60;;;;;;;17.39;51.88;100345.17;106729;1273;22561;-66
2023/12/03 03:30:06;;;;;;;5.80;2.50;;;;;;;17.37;51.81;100343.39;106739;1258;25236;-67
2023/12/03 03:32:34;;;;;;;4.20;2.20;;;;;;;17.35;51.67;100355.05;106768;1255;25296;-66
2023/12/03 03:35:05;;;;;;;4.40;2.10;;;;;;;17.33;51.49;100354.27;106853;1261;22523;-67
2023/12/03 03:37:33;;;;;;;4.20;2.80;;;;;;;17.32;51.35;100355.39;106857;1255;25383;-66
2023/12/03 03:40:00;;;;;;;4.50;2.40;;;;;;;17.31;51.26;100364.41;106890;1261;22558;-66
2023/12/03 03:42:29;;;;;;;6.30;2.90;;;;;;;17.29;51.08;100363.25;106817;1258;22527;-65
2023/12/03 03:44:57;;;;;;;6.00;3.20;;;;;;;17.27;50.94;100366.17;106760;1260;22647;-66
2023/12/03 03:47:25;;;;;;;4.30;2.60;;;;;;;17.27;50.86;100382.17;106880;1254;22549;-67
2023/12/03 03:49:52;;;;;;;4.70;3.10;;;;;;;17.27;50.81;100393.58;106809;1260;25251;-66
2023/12/03 03:52:20;;;;;;;5.30;2.80;;;;;;;17.26;50.83;100400.07;106689;1261;22526;-65
2023/12/03 03:54:48;;;;;;;5.00;2.90;;;;;;;17.25;50.64;100405.09;106776;1260;22530;-65
2023/12/03 03:57:16;;;;;;;5.70;2.90;;;;;;;17.23;50.46;100414.96;106811;1257;25352;-64
2023/12/03 03:59:44;;;;;;;6.80;3.50;;;;;;;17.23;50.36;100412.73;106770;1260;25352;-66
2023/12/03 04:02:12;;;;;;;5.70;3.10;;;;;;;17.22;50.20;100415.93;106822;1254;22531;-66
2023/12/03 04:04:39;;;;;;;7.00;3.90;;;;;;;17.20;50.03;100414.09;106759;1258;22533;-64
2023/12/03 04:07:08;;;;;;;5.40;3.50;;;;;;;17.19;49.96;100408.92;106771;1269;22546;-66
2023/12/03 04:09:37;;;;;;;6.20;4.10;;;;;;;17.17;49.86;100411.63;106876;1255;22540;-65
2023/12/03 04:12:05;;;;;;;6.40;3.40;;;;;;;17.16;49.76;100411.70;106881;1258;22534;-65
2023/12/03 04:14:33;;;;;;;5.60;3.90;;;;;;;17.15;49.70;100414.73;106154;1261;1002993;-66
2023/12/03 04:17:00;;;;;;;6.40;3.50;;;;;;;17.13;49.63;100421.34;106855;1258;22543;-66
2023/12/03 04:19:28;;;;;;;6.40;3.90;;;;;;;17.11;49.57;100425.80;106686;1255;22546;-66
2023/12/03 04:21:56;;;;;;;5.50;3.80;;;;;;;17.09;49.60;100435.20;106437;1275;22539;-67
2023/12/03 04:24:24;;;;;;;5.80;4.00;;;;;;;17.08;49.46;100434.53;106805;1259;23002;-68
2023/12/03 04:26:51;;;;;;;5.50;4.10;;;;;;;17.07;49.41;100435.14;106857;1255;25364;-67
2023/12/03 04:29:19;;;;;;;5.30;4.40;;;;;;;17.05;49.40;100432.61;106752;1261;22529;-65
2023/12/03 04:31:47;;;;;;;6.50;4.00;;;;;;;17.04;49.41;100437.57;106828;1259;22526;-66
2023/12/03 04:34:15;;;;;;;6.90;4.40;;;;;;;17.03;49.42;100439.91;106868;1255;22548;-66
2023/12/03 04:36:46;;;;;;;7.10;4.50;;;;;;;17.02;49.39;100450.47;106563;1264;22543;-65
2023/12/03 04:39:14;;;;;;;7.80;4.20;;;;;;;17.02;49.41;100450.67;106751;1270;22534;-67
2023/12/03 04:41:41;;;;;;;7.20;3.90;;;;;;;17.01;49.39;100456.50;106822;1255;25377;-67
2023/12/03 04:44:09;;;;;;;4.20;3.80;;;;;;;17.00;49.30;100457.80;106792;1255;24288;-65
2023/12/03 04:46:43;;;;;;;9.80;4.40;;;;;;;16.98;49.36;100451.79;106601;1261;22530;-66
2023/12/03 04:49:11;;;;;;;6.30;4.00;;;;;;;16.96;49.29;100452.04;106832;1257;22547;-65
2023/12/03 04:51:39;;;;;;;6.00;3.80;;;;;;;16.94;49.33;100448.25;106697;1261;22526;-66
2023/12/03 04:54:07;;;;;;;10.70;4.50;;;;;;;16.94;49.29;100447.06;106901;1257;23175;-67
2023/12/03 04:56:35;;;;;;;6.40;4.70;;;;;;;16.93;49.23;100455.52;106688;1255;22532;-68
2023/12/03 04:59:02;;;;;;;10.00;3.60;;;;;;;16.91;49.25;100468.23;106825;1260;22533;-67
2023/12/03 05:01:30;;;;;;;5.70;4.30;;;;;;;16.90;49.28;100470.20;105012;1263;1003526;-66
2023/12/03 05:03:58;;;;;;;9.90;4.80;;;;;;;16.89;49.27;100472.70;106808;1259;22521;-67
2023/12/03 05:06:26;;;;;;;6.70;3.90;;;;;;;16.89;49.24;100471.85;106800;1258;22522;-68
2023/12/03 05:08:55;;;;;;;8.30;4.30;;;;;;;16.89;49.19;100474.48;106775;1269;22541;-68
2023/12/03 05:11:22;;;;;;;6.10;4.80;;;;;;;16.89;49.11;100491.98;106771;1257;25367;-68
2023/12/03 05:13:50;;;;;;;7.70;4.10;;;;;;;16.88;49.02;100496.80;106773;1269;22526;-66
2023/12/03 05:16:18;;;;;;;8.10;4.60;;;;;;;16.86;49.08;100506.50;106876;1258;24246;-67
2023/12/03 05:18:46;;;;;;;7.40;5.40;;;;;;;16.86;48.97;100522.98;106820;1258;22528;-67
2023/12/03 05:21:14;;;;;;;6.70;6.00;;;;;;;16.85;48.89;100528.64;106792;1270;22545;-67
2023/12/03 05:23:42;;;;;;;15.60;8.20;;;;;;;16.84;48.97;100537.80;106773;1260;22538;-68
2023/12/03 05:26:10;;;;;;;17.80;8.90;;;;;;;16.83;48.96;100540.67;106850;1259;22519;-67
2023/12/03 05:28:38;;;;;;;27.90;9.90;;;;;;;16.81;48.97;100548.81;106935;1258;22826;-68
2023/12/03 05:31:06;;;;;;;24.70;9.10;;;;;;;16.80;49.10;100556.61;106786;1259;22538;-65
2023/12/03 05:33:34;;;;;;;22.80;9.40;;;;;;;16.79;49.25;100569.80;106827;1255;23005;-66
2023/12/03 05:36:02;;;;;;;23.40;8.90;;;;;;;16.78;49.37;100570.02;106838;1269;22538;-68
2023/12/03 05:38:30;;;;;;;29.90;10.10;;;;;;;16.78;49.38;100571.07;106817;1269;22533;-65
2023/12/03 05:40:58;;;;;;;25.80;8.80;;;;;;;16.78;49.36;100562.29;106800;1258;22530;-67
2023/12/03 05:43:25;;;;;;;20.10;7.20;;;;;;;16.77;49.31;100565.67;106789;1257;22542;-66
2023/12/03 05:45:53;;;;;;;14.50;6.10;;;;;;;16.77;49.31;100576.89;106826;1261;22528;-67
2023/12/03 05:48:21;;;;;;;17.60;7.30;;;;;;;16.77;49.38;100584.62;106836;1260;25328;-67
2023/12/03 05:50:50;;;;;;;11.10;6.10;;;;;;;16.77;49.33;100595.48;106818;1258;25243;-66
2023/12/03 05:53:18;;;;;;;10.10;5.60;;;;;;;16.77;49.21;100610.37;106751;1255;22554;-66
2023/12/03 05:55:46;;;;;;;6.90;5.10;;;;;;;16.78;49.16;100621.88;106719;1260;22555;-65
2023/12/03 05:58:13;;;;;;;9.90;5.50;;;;;;;16.78;49.26;100628.68;106778;1258;22620;-65
2023/12/03 06:00:41;;;;;;;25.00;6.80;;;;;;;16.79;49.22;100638.45;106641;1261;22524;-66
2023/12/03 06:03:09;;;;;;;9.60;5.40;;;;;;;16.80;49.18;100642.60;106779;1269;24199;-65
2023/12/03 06:05:37;;;;;;;11.70;5.40;;;;;;;16.82;49.20;100653.02;106845;1270;22527;-67
2023/12/03 06:08:05;;;;;;;11.80;5.90;;;;;;;16.84;49.12;100657.48;106772;1259;22530;-65
2023/12/03 06:10:32;;;;;;;9.30;6.00;;;;;;;16.87;49.17;100661.70;106838;1257;22526;-67
2023/12/03 06:13:00;;;;;;;8.80;5.40;;;;;;;16.90;49.08;100662.61;106739;1255;25244;-65
2023/12/03 06:15:28;;;;;;;12.40;5.40;;;;;;;16.92;49.01;100661.80;106720;1272;22526;-66
2023/12/03 06:17:56;;;;;;;7.10;5.50;;;;;;;16.94;48.98;100662.58;106807;1258;22539;-66
2023/12/03 06:20:24;;;;;;;7.90;5.30;;;;;;;16.95;48.96;100672.33;106796;1260;22533;-65
2023/12/03 06:22:52;;;;;;;14.40;6.90;;;;;;;16.97;48.85;100682.75;106723;1261;22528;-67
2023/12/03 06:25:19;;;;;;;18.60;8.10;;;;;;;17.00;48.94;100685.26;106842;1255;24697;-65
2023/12/03 06:27:47;;;;;;;23.30;8.20;;;;;;;17.02;49.00;100690.38;106740;1270;22552;-67
2023/12/03 06:30:17;;;;;;;13.50;6.10;;;;;;;17.04;48.99;100693.45;106699;1264;22539;-66
2023/12/03 06:32:45;;;;;;;7.20;5.40;;;;;;;17.05;48.91;100691.11;106794;1258;22530;-66
2023/12/03 06:35:14;;;;;;;11.10;5.40;;;;;;;17.06;48.84;100697.55;106700;1260;22519;-68
2023/12/03 06:37:42;;;;;;;7.80;5.60;;;;;;;17.08;48.74;100705.02;106735;1271;25384;-67
2023/12/03 06:40:11;;;;;;;8.70;5.40;;;;;;;17.09;48.76;100710.54;106718;1272;22551;-68
2023/12/03 06:42:38;;;;;;;6.90;5.20;;;;;;;17.10;48.77;100719.99;106873;1255;23879;-68
2023/12/03 06:45:07;;;;;;;10.00;5.60;;;;;;;17.12;48.76;100725.14;106865;1258;22536;-68
2023/12/03 06:47:35;;;;;;;10.30;6.20;;;;;;;17.14;48.77;100733.42;106813;1256;22794;-68
2023/12/03 06:50:23;;;;;;;7.50;5.10;;;;;;;17.17;48.80;100741.36;106834;1269;22533;-68
2023/12/03 06:52:51;;;;;;;6.70;5.10;;;;;;;17.20;48.67;100741.73;106687;1259;22549;-67
2023/12/03 06:55:19;;;;;;;8.30;5.60;;;;;;;17.22;48.64;100742.66;106636;1262;24455;-66
2023/12/03 06:57:47;;;;;;;9.00;6.00;;;;;;;17.24;48.72;100741.36;106677;1262;22528;-67
2023/12/03 07:00:16;;;;;;;8.90;6.00;;;;;;;17.26;48.79;100745.83;106718;1262;22548;-66
2023/12/03 07:02:44;;;;;;;6.60;4.90;;;;;;;17.28;48.83;100748.52;106624;1257;22523;-67
2023/12/03 07:05:11;;;;;;;8.70;5.60;;;;;;;17.30;48.80;100741.56;106565;1259;22542;-67
2023/12/03 07:07:39;;;;;;;9.30;5.70;;;;;;;17.33;48.65;100751.92;106349;1261;25246;-65
2023/12/03 07:10:08;;;;;;;8.50;5.90;;;;;;;17.36;48.82;100763.73;106764;1261;22707;-67
2023/12/03 07:12:35;;;;;;;8.80;5.60;;;;;;;17.37;48.74;100769.30;106529;1262;22530;-65
2023/12/03 07:15:04;;;;;;;7.50;5.50;;;;;;;17.38;48.61;100791.50;106250;1275;22580;-67
2023/12/03 07:17:32;;;;;;;7.70;5.90;;;;;;;17.38;48.60;100801.67;106322;1262;22532;-67
2023/12/03 07:20:00;;;;;;;8.80;6.20;;;;;;;17.40;48.65;100807.34;106392;1259;22559;-67
2023/12/03 07:22:27;;;;;;;7.30;5.60;;;;;;;17.44;48.74;100812.28;106654;1260;22537;-67
2023/12/03 07:24:55;;;;;;;8.10;6.00;;;;;;;17.46;48.68;100817.58;106453;1277;25260;-67
2023/12/03 07:27:23;;;;;;;7.30;5.80;;;;;;;17.49;48.92;100819.21;106863;1258;25330;-67
2023/12/03 07:29:55;;;;;;;9.40;6.00;;;;;;;17.53;48.99;100826.90;106722;1258;24213;-66
2023/12/03 07:32:23;;;;;;;9.80;7.00;;;;;;;17.58;49.11;100829.27;106709;1256;22554;-67
2023/12/03 07:34:51;;;;;;;8.60;6.10;;;;;;;17.62;49.07;100836.45;106854;1255;24217;-66
2023/12/03 07:37:18;;;;;;;9.40;6.10;;;;;;;17.65;49.10;100844.20;106804;1255;22552;-67
2023/12/03 07:39:46;;;;;;;7.70;5.70;;;;;;;17.69;49.16;100845.91;106818;1255;22547;-66
2023/12/03 07:42:14;;;;;;;9.10;5.80;;;;;;;17.72;49.06;100842.98;106785;1260;22569;-66
2023/12/03 07:44:42;;;;;;;9.30;6.40;;;;;;;17.74;49.00;100837.24;106735;1258;22548;-67
2023/12/03 07:47:10;;;;;;;9.50;6.20;;;;;;;17.78;48.98;100832.48;106892;1269;22534;-64
2023/12/03 07:49:38;;;;;;;8.30;5.40;;;;;;;17.82;48.98;100837.73;106678;1261;22529;-66
2023/12/03 07:52:06;;;;;;;10.40;5.80;;;;;;;17.86;48.91;100846.14;106736;1261;25352;-65
2023/12/03 07:54:34;;;;;;;8.60;5.60;;;;;;;17.88;48.82;100855.86;106741;1255;24217;-66
2023/12/03 07:57:02;;;;;;;10.10;6.20;;;;;;;17.92;48.73;100858.33;106789;1257;22532;-66
2023/12/03 07:59:30;;;;;;;6.90;5.60;;;;;;;17.94;48.60;100861.19;106815;1258;22533;-66
2023/12/03 08:01:58;;;;;;;8.00;5.90;;;;;;;17.96;48.60;100863.88;106915;1258;22521;-67
2023/12/03 08:04:27;;;;;;;6.80;5.60;;;;;;;17.99;48.54;100865.48;106918;1257;22545;-66
2023/12/03 08:06:55;;;;;;;6.80;5.90;;;;;;;18.03;48.60;100875.98;106841;1260;24252;-66
2023/12/03 08:09:24;;;;;;;15.30;7.00;;;;;;;18.06;48.30;100879.17;106551;1261;22529;-66
2023/12/03 08:11:53;;;;;;;14.20;7.40;;;;;;;18.09;48.28;100875.70;106815;1258;24401;-66
2023/12/03 08:14:20;;;;;;;18.90;7.60;;;;;;;18.12;48.22;100881.89;106878;1258;22527;-65
2023/12/03 08:16:48;;;;;;;16.50;8.00;;;;;;;18.14;48.13;100892.83;106872;1260;22532;-65
2023/12/03 08:19:16;;;;;;;17.10;8.00;;;;;;;18.17;48.09;100895.65;106679;1261;22530;-66
2023/12/03 08:21:44;;;;;;;13.30;7.80;;;;;;;18.21;47.87;100897.37;106806;1256;22529;-65
2023/12/03 08:24:12;;;;;;;17.60;8.00;;;;;;;18.25;47.81;100905.60;106621;1261;25397;-66
2023/12/03 08:26:40;;;;;;;13.70;7.70;;;;;;;18.29;47.75;100904.86;106747;1255;22546;-66
2023/12/03 08:29:08;;;;;;;15.70;7.70;;;;;;;18.34;47.76;100904.78;106745;1261;22644;-67
2023/12/03 08:31:36;;;;;;;14.10;7.60;;;;;;;18.39;47.60;100919.25;106766;1265;22528;-67
2023/12/03 08:34:04;;;;;;;15.60;7.80;;;;;;;18.45;47.61;100921.44;106801;1260;22994;-66
2023/12/03 08:36:32;;;;;;;11.40;6.70;;;;;;;18.50;47.48;100922.92;106775;1258;22877;-66
2023/12/03 08:39:02;;;;;;;14.00;6.80;;;;;;;18.57;47.38;100930.84;106787;1257;25368;-64
2023/12/03 08:41:31;;;;;;;9.40;6.00;;;;;;;18.62;47.17;100934.44;106960;1255;22557;-66
2023/12/03 08:43:59;;;;;;;7.80;6.00;;;;;;;18.68;47.12;100933.94;106707;1261;25302;-67
2023/12/03 08:46:27;;;;;;;9.20;5.90;;;;;;;18.74;47.07;100933.61;106727;1270;22533;-65
2023/12/03 08:48:54;;;;;;;8.40;6.00;;;;;;;18.79;46.95;100935.65;106780;1270;22543;-67
2023/12/03 08:51:22;;;;;;;9.80;6.30;;;;;;;18.84;46.99;100931.69;106771;1262;22556;-67
2023/12/03 08:53:50;;;;;;;8.90;6.20;;;;;;;18.89;46.73;100935.98;106781;1263;22529;-65
2023/12/03 08:56:18;;;;;;;8.50;5.70;;;;;;;18.93;46.50;100942.63;106907;1260;22525;-66
2023/12/03 08:58:48;;;;;;;11.70;6.60;;;;;;;18.97;46.26;100943.11;106777;1261;24187;-66
2023/12/03 09:01:16;;;;;;;7.40;5.90;;;;;;;19.00;46.18;100938.89;106835;1256;24891;-66
2023/12/03 09:03:45;;;;;;;9.20;5.80;;;;;;;19.02;45.94;100940.52;106848;1258;22552;-67
2023/12/03 09:06:14;;;;;;;10.80;6.30;;;;;;;19.04;45.88;100941.98;106815;1255;22518;-67
2023/12/03 09:08:42;;;;;;;10.30;6.40;;;;;;;19.07;45.88;100941.33;106032;1256;1002903;-67
2023/12/03 09:11:10;;;;;;;7.30;5.90;;;;;;;19.10;45.91;100942.04;106842;1258;25396;-65
2023/12/03 09:13:38;;;;;;;8.60;6.00;;;;;;;19.12;45.89;100941.05;106585;1258;22530;-67
2023/12/03 09:16:07;;;;;;;7.70;5.50;;;;;;;19.15;45.81;100944.25;106628;1261;22545;-66
2023/12/03 09:18:38;;;;;;;10.20;6.40;;;;;;;19.17;45.98;100948.86;106705;1259;25476;-67
2023/12/03 09:21:13;;;;;;;7.70;5.20;;;;;;;19.20;45.57;100949.21;106816;1258;22525;-67
2023/12/03 09:23:41;;;;;;;13.40;6.50;;;;;;;19.22;45.57;100946.99;106769;1258;24897;-66
2023/12/03 09:26:09;;;;;;;8.70;5.50;;;;;;;19.25;45.49;100944.38;106730;1258;22533;-67
2023/12/03 09:28:37;;;;;;;8.00;5.90;;;;;;;19.30;45.58;100954.65;106790;1263;22535;-67
2023/12/03 09:31:05;;;;;;;8.50;5.90;;;;;;;19.39;45.69;100990.25;106734;1261;22537;-67
2023/12/03 09:33:33;;;;;;;9.00;6.00;;;;;;;19.46;45.61;100996.71;106599;1259;22543;-67
2023/12/03 09:36:01;;;;;;;9.40;6.80;;;;;;;19.49;45.22;101017.14;106506;1261;22537;-66
2023/12/03 09:38:29;;;;;;;9.30;7.50;;;;;;;19.36;44.34;101027.88;106685;1258;22541;-65
2023/12/03 09:40:57;;;;;;;9.30;7.00;;;;;;;19.08;44.48;101042.58;106538;1273;22541;-67
2023/12/03 09:43:27;;;;;;;8.30;6.80;;;;;;;18.81;44.63;101047.67;106341;1261;22568;-67
2023/12/03 09:45:55;;;;;;;9.70;7.40;;;;;;;18.57;44.91;101043.42;106451;1257;25378;-67
2023/12/03 09:48:24;;;;;;;9.30;7.70;;;;;;;18.33;45.33;101053.23;106581;1257;22566;-67
2023/12/03 09:50:52;;;;;;;9.90;7.60;;;;;;;18.17;45.70;101054.19;106465;1260;22541;-66
2023/12/03 09:53:20;;;;;;;9.80;7.10;;;;;;;18.03;45.93;101053.52;106305;1274;22541;-65
2023/12/03 09:55:48;;;;;;;10.20;6.90;;;;;;;17.86;45.98;101067.77;106861;1259;24253;-66
2023/12/03 09:58:16;;;;;;;8.60;6.40;;;;;;;17.69;45.74;101081.21;106826;1259;22529;-66
2023/12/03 10:00:44;;;;;;;9.20;6.10;;;;;;;17.57;45.37;101094.77;106910;1263;22525;-66
2023/12/03 10:03:12;;;;;;;8.40;6.20;;;;;;;17.48;45.24;101094.96;106778;1258;24222;-66
2023/12/03 10:05:40;;;;;;;13.40;7.00;;;;;;;17.40;45.33;101096.56;106809;1270;22530;-65
2023/12/03 10:08:08;;;;;;;7.90;6.10;;;;;;;17.28;45.53;101100.56;106836;1258;22530;-66
2023/12/03 10:10:36;;;;;;;8.30;6.50;;;;;;;17.17;46.02;101110.40;106435;1259;527182;-64
2023/12/03 10:13:04;;;;;;;8.30;7.20;;;;;;;17.05;46.37;101118.78;106900;1259;22533;-66
2023/12/03 10:15:32;;;;;;;9.60;7.30;;;;;;;16.93;46.41;101125.94;106889;1269;22533;-66
2023/12/03 10:18:00;;;;;;;8.00;7.00;;;;;;;16.81;46.30;101135.05;106667;1260;22533;-66
2023/12/03 10:20:28;;;;;;;8.70;7.20;;;;;;;16.75;46.25;101144.07;106852;1261;22525;-66
2023/12/03 10:22:58;;;;;;;9.80;8.00;;;;;;;16.73;46.09;101144.30;106776;1262;22522;-67
2023/12/03 10:25:27;;;;;;;9.60;8.60;;;;;;;16.70;45.86;101154.43;106720;1269;25359;-66
2023/12/03 10:27:56;;;;;;;9.90;8.80;;;;;;;16.64;45.86;101165.00;106763;1261;25227;-66
2023/12/03 10:33:48;;;;;;;10.80;9.60;;;;;;;16.55;46.10;101176.39;103644;1299;545801;-65
2023/12/03 10:36:16;;;;;;;11.40;9.50;;;;;;;16.46;46.16;101175.50;105907;1271;22642;-63
2023/12/03 10:38:44;;;;;;;11.40;9.90;;;;;;;16.38;46.50;101188.42;105957;1282;24384;-65
2023/12/03 10:41:16;;;;;;;11.20;10.00;;;;;;;16.34;46.66;101185.98;105921;1272;22539;-65
2023/12/03 10:43:43;;;;;;;;;;;;;;;16.30;46.80;101189.80;105833;1287;22572;-65
2023/12/03 10:46:12;;;;;;;10.60;9.30;;;;;;;16.25;46.95;101196.08;105593;1284;25370;-64
2023/12/03 10:48:40;;;;;;;13.90;10.10;;;;;;;16.19;47.05;101192.11;105844;1281;340047;-64
2023/12/03 10:51:10;;;;;;;11.00;9.80;;;;;;;16.17;47.26;101197.46;106109;1281;24261;-64
2023/12/03 10:53:38;;;;;;;11.90;10.00;;;;;;;16.20;47.11;101202.77;106254;1281;22542;-64
2023/12/03 10:56:07;;;;;;;13.20;10.10;;;;;;;16.28;46.93;101209.98;106050;1281;23943;-65
2023/12/03 10:58:39;;;;;;;11.50;9.70;;;;;;;16.22;47.05;101238.06;106042;1284;25373;-65
2023/12/03 11:01:19;;;;;;;11.40;10.20;;;;;;;16.19;47.11;101256.36;105897;1282;22532;-65
2023/12/03 11:04:13;;;;;;;11.20;9.30;;;;;;;16.12;47.12;101258.20;105804;1282;25310;-65
2023/12/03 11:06:41;;;;;;;14.10;11.80;;;;;;;16.04;47.25;101257.44;105570;1285;24073;-65
2023/12/03 11:09:09;;;;;;;12.90;11.40;;;;;;;15.99;47.50;101260.63;105097;1284;1003544;-65
2023/12/03 11:11:40;;;;;;;13.40;10.10;;;;;;;15.91;47.56;101254.25;105919;1281;22555;-65
2023/12/03 11:17:40;;;;;;;11.50;10.30;;;;;;;15.79;48.04;101250.50;103774;1291;544995;-65
2023/12/03 11:20:18;;;;;;;12.00;10.30;;;;;;;15.78;48.24;101261.36;105996;1282;22559;-65
2023/12/03 11:22:46;;;;;;;11.20;10.10;;;;;;;15.79;48.26;101253.27;105154;1282;1003661;-66